createdAt,value
2022-08-17T00:00:34.907Z,31.05
2022-08-17T00:05:45.397Z,29.50
2022-08-17T00:10:51.791Z,36.05
2022-08-17T00:15:59.750Z,31.23
2022-08-17T00:21:05.239Z,31.60
2022-08-17T00:26:16.518Z,29.90
2022-08-17T00:31:40.321Z,30.52
2022-08-17T00:36:44.042Z,29.23
2022-08-17T00:41:49.112Z,32.92
2022-08-17T00:46:56.313Z,28.65
2022-08-17T00:52:11.657Z,31.88
2022-08-17T00:57:22.734Z,30.30
2022-08-17T01:02:27.990Z,29.58
2022-08-17T01:07:31.819Z,30.67
2022-08-17T01:12:37.241Z,32.90
2022-08-17T01:17:41.673Z,36.55
2022-08-17T01:22:46.845Z,32.97
2022-08-17T01:27:51.228Z,36.05
2022-08-17T01:32:55.342Z,34.17
2022-08-17T01:38:27.041Z,32.85
2022-08-17T01:43:44.649Z,27.77
2022-08-17T01:48:48.624Z,34.70
2022-08-17T01:53:57.480Z,29.10
2022-08-17T01:59:01.452Z,36.97
2022-08-17T02:04:06.760Z,35.35
2022-08-17T02:09:16.835Z,36.20
2022-08-17T02:14:20.777Z,30.67
2022-08-17T02:19:24.436Z,34.67
2022-08-17T02:25:00.984Z,36.05
2022-08-17T02:29:57.662Z,33.60
2022-08-17T02:35:02.153Z,31.17
2022-08-17T02:40:10.432Z,36.63
2022-08-17T02:45:17.036Z,30.83
2022-08-17T02:55:29.881Z,35.05
2022-08-17T03:00:36.742Z,33.00
2022-08-17T03:05:41.790Z,35.58
2022-08-17T03:10:47.464Z,35.88
2022-08-17T03:15:51.225Z,33.40
2022-08-17T03:20:56.690Z,29.77
2022-08-17T03:26:02.217Z,28.48
2022-08-17T03:31:06.465Z,31.92
2022-08-17T03:36:11.067Z,25.83
2022-08-17T03:41:16.637Z,27.45
2022-08-17T03:46:38.084Z,26.90
2022-08-17T03:51:59.242Z,24.23
2022-08-17T03:57:06.534Z,24.45
2022-08-17T04:02:12.878Z,23.15
2022-08-17T04:07:16.681Z,26.20
2022-08-17T04:12:23.813Z,29.73
2022-08-17T04:17:30.214Z,24.63
2022-08-17T04:22:34.451Z,24.83
2022-08-17T04:27:39.686Z,24.40
2022-08-17T04:33:00.579Z,22.98
2022-08-17T04:38:17.082Z,23.73
2022-08-17T04:48:36.052Z,22.90
2022-08-17T04:53:42.923Z,26.23
2022-08-17T04:58:50.718Z,23.33
2022-08-17T05:03:56.215Z,23.50
2022-08-17T05:09:00.086Z,24.63
2022-08-17T05:14:05.512Z,25.92
2022-08-17T05:19:09.320Z,25.48
2022-08-17T05:24:42.716Z,27.67
2022-08-17T05:29:38.577Z,31.33
2022-08-17T05:34:42.694Z,27.85
2022-08-17T05:39:46.497Z,27.63
2022-08-17T05:44:51.896Z,26.05
2022-08-17T05:49:56.103Z,23.27
2022-08-17T05:55:18.709Z,22.92
2022-08-17T06:00:30.673Z,24.42
2022-08-17T06:05:52.800Z,23.20
2022-08-17T06:11:09.990Z,25.02
2022-08-17T06:16:33.891Z,22.27
2022-08-17T06:21:43.694Z,22.70
2022-08-17T06:26:48.471Z,22.17
2022-08-17T06:31:53.571Z,20.48
2022-08-17T06:37:09.350Z,18.85
2022-08-17T06:43:04.966Z,20.37
2022-08-17T06:47:57.663Z,19.52
2022-08-17T06:53:07.315Z,18.33
2022-08-17T06:58:15.991Z,19.27
2022-08-17T07:03:37.932Z,17.65
2022-08-17T07:08:57.344Z,20.55
2022-08-17T07:14:16.930Z,15.98
2022-08-17T07:19:28.104Z,18.35
2022-08-17T07:24:38.040Z,15.27
2022-08-17T07:29:46.950Z,15.88
2022-08-17T07:35:11.333Z,14.77
2022-08-17T07:40:19.169Z,15.32
2022-08-17T07:45:36.912Z,15.20
2022-08-17T07:50:42.125Z,16.23
2022-08-17T07:55:54.661Z,16.75
2022-08-17T08:01:08.121Z,13.63
2022-08-17T08:06:22.808Z,13.75
2022-08-17T08:11:32.460Z,13.52
2022-08-17T08:16:36.799Z,11.32
2022-08-17T08:21:50.379Z,11.23
2022-08-17T08:27:02.123Z,11.85
2022-08-17T08:32:14.683Z,10.73
2022-08-17T08:37:35.562Z,8.93
2022-08-17T08:42:50.809Z,8.65
2022-08-17T08:48:23.031Z,7.80
2022-08-17T08:53:46.574Z,7.55
2022-08-17T08:59:01.953Z,8.27
2022-08-17T09:04:26.626Z,9.55
2022-08-17T09:09:42.221Z,7.95
2022-08-17T09:14:52.083Z,9.63
2022-08-17T09:20:01.205Z,8.18
2022-08-17T09:25:11.971Z,9.32
2022-08-17T09:30:15.968Z,10.88
2022-08-17T09:35:25.144Z,10.10
2022-08-17T09:40:48.498Z,9.18
2022-08-17T09:45:55.095Z,12.52
2022-08-17T09:56:31.237Z,11.00
2022-08-17T10:01:39.905Z,9.23
2022-08-17T10:06:52.656Z,11.27
2022-08-17T10:12:20.516Z,12.75
2022-08-17T10:17:33.404Z,12.80
2022-08-17T10:22:59.670Z,15.45
2022-08-17T10:33:20.998Z,14.88
2022-08-17T10:38:39.795Z,15.43
2022-08-17T10:44:38.454Z,16.23
2022-08-17T10:54:49.277Z,14.52
2022-08-17T10:59:55.756Z,17.48
2022-08-17T11:05:41.466Z,19.27
2022-08-17T11:11:07.152Z,17.73
2022-08-17T11:16:36.030Z,18.48
2022-08-17T11:21:56.644Z,19.00
2022-08-17T11:27:24.483Z,19.67
2022-08-17T11:32:47.661Z,19.80
2022-08-17T11:38:02.933Z,21.48
2022-08-17T11:43:42.927Z,18.52
2022-08-17T11:49:31.220Z,23.75
2022-08-17T11:54:42.183Z,21.75
2022-08-17T11:59:58.514Z,26.30
2022-08-17T12:05:27.208Z,25.35
2022-08-17T12:10:34.355Z,20.63
2022-08-17T12:15:48.725Z,23.27
2022-08-17T12:21:17.670Z,20.67
2022-08-17T12:26:26.173Z,18.13
2022-08-17T12:31:34.759Z,18.02
2022-08-17T12:36:41.605Z,25.35
2022-08-17T12:41:48.385Z,19.60
2022-08-17T12:46:56.717Z,18.40
2022-08-17T12:52:15.555Z,17.65
2022-08-17T12:57:21.737Z,17.60
2022-08-17T13:02:33.639Z,16.08
2022-08-17T13:07:43.723Z,19.88
2022-08-17T13:12:49.596Z,17.55
2022-08-17T13:18:07.752Z,17.90
2022-08-17T13:23:22.635Z,15.82
2022-08-17T13:28:29.894Z,16.45
2022-08-17T13:33:44.540Z,17.92
2022-08-17T13:38:51.715Z,17.50
2022-08-17T13:43:55.983Z,18.13
2022-08-17T13:49:03.239Z,16.90
2022-08-17T13:54:31.811Z,16.52
2022-08-17T13:59:54.395Z,17.40
2022-08-17T14:05:02.168Z,20.35
2022-08-17T14:10:16.139Z,21.50
2022-08-17T14:15:23.440Z,20.75
2022-08-17T14:20:47.301Z,21.02
2022-08-17T14:25:52.372Z,20.58
2022-08-17T14:30:56.360Z,22.70
2022-08-17T14:36:00.170Z,21.33
2022-08-17T14:41:05.731Z,27.95
2022-08-17T14:46:12.306Z,22.83
2022-08-17T14:56:21.138Z,22.88
2022-08-17T15:01:26.172Z,24.05
2022-08-17T15:06:29.876Z,25.60
2022-08-17T15:11:35.039Z,23.52
2022-08-17T15:16:38.961Z,27.15
2022-08-17T15:21:42.708Z,24.63
2022-08-17T15:26:48.566Z,28.08
2022-08-17T15:31:53.607Z,27.90
2022-08-17T15:37:00.165Z,23.55
2022-08-17T15:42:05.788Z,27.35
2022-08-17T15:47:10.023Z,28.77
2022-08-17T15:52:18.866Z,24.80
2022-08-17T15:57:25.752Z,24.25
2022-08-17T16:03:29.440Z,22.50
2022-08-17T16:07:56.401Z,24.65
2022-08-17T16:13:02.106Z,22.98
2022-08-17T16:18:06.554Z,23.00
2022-08-17T16:23:15.044Z,25.30
2022-08-17T16:28:35.997Z,22.65
2022-08-17T16:33:40.274Z,23.75
2022-08-17T16:38:44.491Z,25.55
2022-08-17T16:43:51.141Z,23.77
2022-08-17T16:48:55.607Z,23.70
2022-08-17T16:53:59.658Z,25.50
2022-08-17T16:59:31.704Z,22.83
2022-08-17T17:04:38.277Z,25.25
2022-08-17T17:09:43.892Z,26.45
2022-08-17T17:14:59.285Z,23.65
2022-08-17T17:20:09.615Z,25.75
2022-08-17T17:25:23.811Z,23.52
2022-08-17T17:30:34.240Z,26.33
2022-08-17T17:35:47.916Z,30.58
2022-08-17T17:40:54.664Z,29.38
2022-08-17T17:46:27.637Z,23.08
2022-08-17T17:51:55.692Z,22.83
2022-08-17T17:57:15.294Z,24.27
2022-08-17T18:02:51.540Z,26.73
2022-08-17T18:08:10.843Z,22.90
2022-08-17T18:13:26.653Z,23.30
2022-08-17T18:18:39.969Z,26.02
2022-08-17T18:23:56.147Z,24.42
2022-08-17T18:29:00.713Z,24.85
2022-08-17T18:34:45.865Z,22.00
2022-08-17T18:39:48.717Z,26.40
2022-08-17T18:44:55.278Z,24.65
2022-08-17T18:50:22.177Z,20.70
2022-08-17T18:55:29.019Z,21.35
2022-08-17T19:00:38.307Z,22.05
2022-08-17T19:05:45.840Z,25.27
2022-08-17T19:10:53.697Z,24.27
2022-08-17T19:16:11.682Z,23.27
2022-08-17T19:21:25.045Z,25.42
2022-08-17T19:26:51.226Z,29.00
2022-08-17T19:31:59.475Z,26.17
2022-08-17T19:37:10.711Z,27.60
2022-08-17T19:42:23.359Z,28.75
2022-08-17T19:47:54.174Z,29.13
2022-08-17T19:53:07.353Z,34.85
2022-08-17T19:58:26.978Z,37.75
2022-08-17T20:03:35.920Z,35.35
2022-08-17T20:08:46.762Z,35.42
2022-08-17T20:13:56.985Z,37.40
2022-08-17T20:19:02.424Z,38.97
2022-08-17T20:24:18.936Z,34.47
2022-08-17T20:29:37.776Z,33.60
2022-08-17T20:34:47.655Z,34.83
2022-08-17T20:40:15.593Z,36.70
2022-08-17T20:45:56.420Z,33.00
2022-08-17T20:51:16.368Z,34.67
2022-08-17T20:56:50.508Z,38.40
2022-08-17T21:02:18.910Z,31.65
2022-08-17T21:07:30.025Z,32.05
2022-08-17T21:12:44.251Z,38.30
2022-08-17T21:17:51.357Z,43.80
2022-08-17T21:23:19.143Z,41.53
2022-08-17T21:29:00.359Z,44.25
2022-08-17T21:34:42.492Z,44.70
2022-08-17T21:39:54.570Z,46.95
2022-08-17T21:45:09.177Z,46.30
2022-08-17T21:50:20.516Z,49.10
2022-08-17T21:55:29.092Z,42.55
2022-08-17T22:00:34.806Z,37.67
2022-08-17T22:05:40.735Z,37.23
2022-08-17T22:10:47.517Z,41.83
2022-08-17T22:16:15.400Z,40.90
2022-08-17T22:21:32.961Z,40.30
2022-08-17T22:27:01.956Z,33.38
2022-08-17T22:32:07.117Z,33.42
2022-08-17T22:37:28.839Z,35.03
2022-08-17T22:42:33.124Z,32.83
2022-08-17T22:47:43.072Z,28.77
2022-08-17T22:53:13.894Z,31.90
2022-08-17T22:58:38.666Z,30.27
2022-08-17T23:03:56.276Z,31.38
2022-08-17T23:09:00.027Z,28.90
2022-08-17T23:14:03.869Z,26.40
2022-08-17T23:19:09.855Z,25.67
2022-08-17T23:24:20.532Z,23.77
2022-08-17T23:29:24.534Z,23.35
2022-08-17T23:34:31.273Z,23.27
2022-08-17T23:39:35.715Z,20.45
2022-08-17T23:44:41.696Z,20.45
2022-08-17T23:49:46.768Z,19.90
2022-08-17T23:54:50.694Z,20.88
2022-08-17T23:59:54.413Z,18.35
